Observations for Trim Market St
| Time | AQI | Temp °C | Hum % | Pres Pa | CO μg/m³ | H₂S μg/m³ | NO μg/m³ | NO₂ μg/m³ | O₃ μg/m³ | SO₂ μg/m³ | PM1 μg/m³ | PM2.5 μg/m³ | PM10 μg/m³ |
|---|---|---|---|---|---|---|---|---|---|---|---|---|---|
| Tuesday 14 July 2026 | |||||||||||||
| 23:55 | 1 | 18.4 | 63 | 57,722 | 0.06 | 0 | 0 | 7.53 | 21.64 | 0 | 5.7 | 9.34 | 14.88 |
| 23:54 | 1 | 18.4 | 63 | 57,727 | 0.07 | 0 | 0 | 9.33 | 19.24 | 0 | 4.99 | 9.34 | 13.54 |
| 23:53 | 1 | 18.4 | 63 | 57,737 | 0.05 | 0 | 0 | 7.54 | 21.76 | 0 | 5.7 | 7.36 | 10.2 |
| 23:52 | 1 | 18.4 | 63 | 57,744 | 0.06 | 0 | 0 | 8.05 | 21.21 | 0 | 5.7 | 10.34 | 14.89 |
| 23:51 | 1 | 18.5 | 63 | 57,752 | 0.05 | 0 | 0 | 7.83 | 22.37 | 0 | 4.99 | 9.35 | 13.56 |
| 23:50 | 1 | 18.5 | 63 | 57,755 | 0.06 | 0 | 0 | 7.24 | 27.35 | 0 | 4.99 | 8.86 | 12.22 |
| 23:48 | 1 | 18.5 | 63 | 57,756 | 0.04 | 0 | 0 | 8.25 | 22.93 | 0 | 6.41 | 9.86 | 13.57 |
| 23:47 | 1 | 18.5 | 62 | 57,762 | 0.07 | 0 | 0 | 8.16 | 21.04 | 0 | 5.7 | 8.87 | 12.9 |
| 23:46 | 1 | 18.5 | 62 | 57,765 | 0.13 | 0 | 0 | 9.16 | 19.82 | 0 | 5.7 | 9.37 | 14.24 |
| 23:43 | 1 | 18.5 | 62 | 57,777 | 0.08 | 0 | 0 | 8.68 | 21.04 | 0 | 3.56 | 5.9 | 8.2 |
| 23:33 | 1 | 18.6 | 62 | 57,813 | 0.02 | 0 | 0 | 7.71 | 23.65 | 0 | 5.7 | 7.92 | 14.28 |
| 23:32 | 1 | 18.6 | 62 | 57,817 | 0.03 | 0 | 0 | 8.01 | 21.54 | 0 | 3.56 | 8.42 | 11.58 |
| 23:31 | 1 | 18.7 | 62 | 57,820 | 0.02 | 0 | 0 | 7.6 | 23.83 | 0 | 4.28 | 7.93 | 10.91 |
| 23:30 | 1 | 18.7 | 62 | 57,823 | 0.02 | 0 | 0 | 8.5 | 23.27 | 0 | 5.7 | 7.93 | 10.91 |
| 23:29 | 1 | 18.7 | 62 | 57,829 | 0.02 | 0 | 0 | 7.11 | 22.04 | 0 | 5.7 | 8.43 | 11.59 |
| 23:28 | 1 | 18.7 | 62 | 57,832 | 0.02 | 0 | 0 | 7.31 | 23.06 | 0 | 4.28 | 8.93 | 12.94 |
| 23:27 | 1 | 18.7 | 62 | 57,836 | 0.04 | 0 | 0 | 7.92 | 23.02 | 0 | 4.28 | 8.93 | 14.98 |
| 23:22 | 1 | 18.8 | 61 | 57,851 | 0.06 | 0 | 0 | 9.93 | 20 | 0 | 6.41 | 11.45 | 17.04 |
| 23:21 | 1 | 18.8 | 61 | 57,856 | 0.02 | 0 | 0 | 8.54 | 21.98 | 0 | 4.99 | 9.96 | 13.65 |
| 23:20 | 1 | 18.8 | 61 | 57,861 | 0.03 | 0 | 0 | 7.54 | 25.78 | 0 | 6.41 | 11.45 | 17.72 |